Scroll down
FLIGHT INFORMATION
American Airlines

AAL2408

At Arrival Gate

KTPA
 KORD
DATE: 2020-11-16
GATE:  -
GATE DEPARTURE: 22:06
TAKEOFF: 22:16
DATE: 2020-11-17
GATE: G141
LANDING: 00:34
GATE ARRIVAL: 00:45
FLIGHT DATA
Crew: 
Speed: 
470 kts
Altitude: 
36,012 ft
Stage Length: 
881.0 nm
Block Time: 
2.7 hrs
Flight Time: 
2.3 hrs
Fuel Used: 
14,856 lb
Cleared Route: KTPA ENDED LACEN BRUTS JAMIZ JOHNN ATL KAILL GLAZR JEDER HELUB VOSTK ROYYZ HEVAN BONNT NYLEN VEECK BOONE HANNI CLUSO KAYTO PINKK MONKZ JORJO POSSM HAZIL RW28C
TRACK DATA
50,000 ft 1,000 kts
AIRCRAFT INFO AND CUMULATIVE STATS
Aircraft Type: 
B738BW
Registration: 
SELCAL: 
CKBF
MSN/LN: 
33488 / 4530
Operator: 
Total Flights: 
25
Total Block Time: 
58 hrs
Total Flight Time: 
51.5 hrs
Total Fuel Time: 
322,127 lb
DATALINK LOG | Newest first | Current as of: 2020-11-29 23:02:53
LABEL SEQUENCE CONTENT Dn/Up
QD492700:45 10.3▼ Dn
QC381600:34▼ Dn
2U2136KORD 162351Z 25005KT 10SM FEW060 07/M01 A2996 RMK AO2 SLP150 T00671006 10083 20056 56012 $▲ Up
2S2405KORD▼ Dn
2U2050KORD 162351Z 25005KT 10SM FEW060 07/M01 A2996 RMK AO2 SLP150 T00671006 10083 20056 56012 $▲ Up
2S2304KORD▼ Dn
5Z220417 NOV 20 00:18:38z / FLT DECK GOOD / ACF POS GOOD / GRND SERVICES GOOD / MAINT GOOD▼ Dn
GA2214GATE G141▲ Up
GR2203KORD 00:32 MAAS 00 YP/UM 01/02 WCHR/S/C 03/04/05 HI-VAL NO DIPL/VIP NO▼ Dn
2U1802KTPA 162353Z 36008KT 10SM FEW250 23/19 A3014 RMK AO2 SLP205 T02280189 10294 20228 53016▲ Up
2S2102KTPA▼ Dn
QB190722:16▼ Dn
QA085822:06 25.2▼ Dn
A34948CLEARED TO KORD VIA ENDED8 LACEN BRUTS Q118 ROYYZ Q118 HEVAN BONNT VEECK5 . SQUAWK 3437.▲ Up
5U4720KORD 170146Z 27011KT 10SM SCT050 08/M04 A3000▲ Up
2U4716KTPA 162053Z 02009KT 10SM FEW035 FEW250 28/19 A3009 RMK AO2 SLP189 T02830194 55008▲ Up
5S4946KORD▼ Dn
2S4946KTPA▼ Dn
Q04838[LINK ACK]▲ Up
Q04838[LINK TEST]▼ Dn


AIRCRAFT HISTORY
FLIGHT DATE FLIGHT NO. ORIGIN DESTINATION CLEARED ROUTE BLOCK TIME FLIGHT TIME FUEL USED PILOT
2020-11-28AAL3803KAUS KORD KAUS WLMRT ELOEL KLNGR FUZ URH KM39G WELTS MCDEE CASHN VINCA MAROC TRICH TRTLL HIHRY RINNO JORJO MONKZ TONIE HAZIL RW28C2.4 hrs2 hrs12,162 lbGeorge M
2020-11-27AAL3803KORD KAUS KORD ACITO ADELL ARLYN STL FSM WINDU SSOLO GABOO SEWZY VADRR HHOOF MMARE SMRFF JOVSA RW35L2.8 hrs2.5 hrs15,006 lbGeorge M
2020-11-26AAL2408KTPA KORD KTPA ENDED LACEN BRUTS JAMIZ JOHNN ATL KAILL GLAZR JEDER HELUB VOSTK ROYYZ HEVAN BONNT NYLEN VEECK BOONE HANNI CLUSO KAYTO PINKK MONKZ JORJO POSSM HAZIL RW28C2.6 hrs2.3 hrs13,817 lbGeorge M
2020-11-25AAL2998KBOS KTPA KBOS TJAYY BRRRO JAITE HEWMO KENWI PATSS NELIE BIZEX DUEYS JERSY SBJ BIGGY COPES MXE STOEN SACRI MURPH TOOBN HAMMZ GVE DRAIK BROSK GSO SLOJO ILBEE FISHO SHRIL TEEEM TEUFL GEEYE JAYJA EDISN OLENE MARVI KOKOH DADES LZARD JKBAL BUCCS RW19L3.3 hrs3.1 hrs17,644 lbGeorge M
2020-11-25AAL832KORD KBOS KORD EBAKE WISMO POSTS PADDE SVM DKK PONCT STOLI MNSTA SEETS DUBLE BASEZ JFUND AUTUM WINTA HRRIS ISLAY LWLND WYANE RW22L1.9 hrs1.7 hrs10,454 lbGeorge M
2020-11-24AAL4886KMSP KORD KMSP FGT FOBUG DOKTR CORDY RST ZZIPR WELCM TEEOO MITEE BHAWK STNLE CUUPP CHMPN CLSBY FYTTE MOTRR COGSS MADII SOOLU KURKK VULCN HIMGO DEVON RW09R1.2 hrs0.9 hrs6,161 lbGeorge M
2020-11-22AAL331KORD KMSP KORD PMPKN NEATO DLLAN RONIC KAMMA BEERI ROBBY KBULL ZZING HENDR CMAAC KKILR HUGGI KRISP STUWE GEEQU AABEZ RW30L1.2 hrs0.9 hrs6,388 lbGeorge M
2020-11-21AAL575KPHX KORD KPHX JINOL OSGUE ZIDOG OXYGN ZILUB FORPE LALUZ SJN ABQ FTI KENTO DRAWL GCK SLN AGENT KIDER IRK LOAMY KEOKK DRAMS RYELY BFORD BYLAW BENKY NEWRK AHSTN PETAH JORJO MONKZ TONIE RRUDA RW10C3 hrs2.7 hrs16,574 lbGeorge M
2020-11-21AAL2065KDEN KPHX KDEN BRKEM LENNN TIKLR CIROS RKYMT SOLAR SMMUR DAAYE GUP KIRKM SLIDR TINIZ PAYSO EAGUL HOMRR BOHTX GEENO QUENY HINEY OBASE JAMIL RW081.9 hrs1.5 hrs10,514 lbGeorge M
2020-11-21AAL1148KORD KDEN KORD OLINN OREOS OBENE OGALE OBH BRWRY LAWGR PPINT TAPME GRRUB KIKME RW16L2.7 hrs2.4 hrs14,192 lbGeorge M
2020-11-16AAL2408KTPA KORD KTPA ENDED LACEN BRUTS JAMIZ JOHNN ATL KAILL GLAZR JEDER HELUB VOSTK ROYYZ HEVAN BONNT NYLEN VEECK BOONE HANNI CLUSO KAYTO PINKK MONKZ JORJO POSSM HAZIL RW28C2.7 hrs2.3 hrs14,856 lbGeorge M
2020-11-08AAL2419KCLT KTPA KTPA PIE KTPA1.6 hrs1.4 hrs9,115 lbGeorge M
2020-11-08AAL511KORD KCLT KCLT TOMME KCLT1.9 hrs1.6 hrs10,591 lbGeorge M
2020-11-07AAL615KPHX KORD KPHX WIVLA HIRVU ZIDOG OXYGN ZILUB FORPE LALUZ SJN ABQ FTI KENTO DRAWL GCK SLN AGENT KIDER IRK LOAMY KEOKK DRAMS RYELY BFORD BYLAW BENKY NEWRK AHSTN PETAH JORJO MONKZ TONIE HAZIL RW28C3.1 hrs2.8 hrs18,015 lbGeorge M
2020-11-07AAL407KDFW KPHX KPHX AVENT KPHX2.5 hrs2.2 hrs13,729 lbGeorge M
2020-11-07AAL5945KSDF KDFW KDFW YUPRU JASPA KDFW1.8 hrs1.6 hrs8,877 lbGeorge M
2020-11-07AAL4723KORD KSDF KSDF TORAC KSDF1.1 hrs0.8 hrs6,057 lbGeorge M
2020-10-17AAL1540KSEA KORD KSEA SEA ZADON ZELAK ZIRAN MLP GTF MLS SWTHN JELRO KEKPE UFFDA HSTIN ZZIPR WELCM TEEOO MITEE BHAWK STNLE CUUPP CHMPN CLSBY FYTTE MOTRR COGSS MADII SOOLU JORJO MONKZ TONIE HAZIL RW28C3.3 hrs3.1 hrs19,465 lbGeorge M
2020-09-26AAL1156KPHX KSEA KPHX GCN WINEN NEERO IMB KSEA2.9 hrs2.7 hrs16,471 lbAlex K.
2020-09-20AAL447KORD KPHX KORD PEKUE PIPPN ELYNA BACNN STJ SLN GCK CIM ZUN DOJOE SLIDR TINIZ PAYSO EAGUL HOMRR BOHTX GEENO QUENY HINEY OBASE JAMIL RW083.4 hrs3.2 hrs18,055 lbGeorge M
2020-09-15AAL1106KDFW KORD KDFW HAZKL RYNNE AKUNA TIKYS MLC SGF WELTS MCDEE CASHN VINCA MAROC TRICH TRTLL HIHRY RINNO JORJO MONKZ TONIE HAZIL RW28C2 hrs1.7 hrs10,671 lbGeorge M
2020-09-07AAL1114KSJC KDFW 3.3 hrs2.9 hrs17,662 lbGeorge M
2020-09-07AAL2722KPHX KSJC 1.7 hrs1.5 hrs9,793 lbGeorge M
2020-09-07AAL769KORD KPHX KORD PEKUE PIPPN ELYNA BACNN STJ SLN GCK CIM ZUN DOJOE SLIDR TINIZ PAYSO EAGUL HOMRR BOHTX GEENO QUENY HINEY OBASE JAMIL RW083.3 hrs3.1 hrs18,894 lbGeorge M
2020-08-09AAL4360KMSP KORD KMSP FGT FOBUG DOKTR CORDY RST ZZIPR WELCM TEEOO MITEE BHAWK STNLE CUUPP CHMPN CLSBY FYTTE MOTRR COGSS MADII SOOLU KURKK VULCN HIMGO EBENS RW27L1.2 hrs0.9 hrs6,965 lbGeorge M